Main page
METAR-TAF:

METAR-TAF

Airports :

N'Djamena International Airport

N'Djamena, Chad

latitude: 12-08N, longitude: 015-02E, elevation: 295 m

Current weather observation

The report was made 44 minutes ago, at 21:00 UTC
Wind 6 kt from the Northwest
Temperature 22°C
Humidity 20%
Pressure 1014 hPa
Visibility: 8000 m

METAR: FTTJ 222100Z 32006KT 8000 NSC 22/M02 Q1014 NOSIG

Time: 22:44 (21:44 UTC)

Forecast

The report was made 4 hours and 24 minutes ago, at 17:20 UTC
Forecast valid from 22 at 18 UTC to 23 at 24 UTC
Wind 10 kt from the North/Northwest
Visibility: 7000 m
Temporary
from 23 at 05 UTC to 23 at 07 UTC
Visibility: 4000 m
widespread dust
Temporary
from 23 at 17 UTC to 23 at 19 UTC
Visibility: 4000 m
widespread dust

TAF: FTTJ 221720Z 2218/2324 34010KT 7000 NSC TEMPO 2305/2307 4000 DU TEMPO 2317/2319 4000 DU

Weather observations and forecasts of more than 4000 airports (METAR and TAF reports).

The available stations are represented by yellow and red dots on the map.

Hover mouse over dot to see the name of the station.

Then click to see weather observations and forecasts.

To change the map : click on the green buttons with a black cross to zoom in, on the green button with a dash to zoom out, or on the green arrows for adjacent maps.


METAR-TAF: